Time;durP1;ratioP1;P1;durP2;ratioP2;P2;SDS_P1;SDS_P2;PMS_P1;PMS_P2;Temp;Humidity;BMP_temperature;BMP_pressure;BME280_temperature;BME280_humidity;BME280_pressure;Samples;Min_cycle;Max_cycle;Signal;HPM_P1;HPM_P2
2021/10/16 00:01:50;;;;;;;22.77;9.13;;;1.70;99.90;;;;;;5041334;28;20044;-71
2021/10/16 00:04:17;;;;;;;27.77;11.35;;;1.60;99.90;;;;;;5045388;28;20105;-71
2021/10/16 00:06:44;;;;;;;28.50;9.55;;;1.80;99.90;;;;;;5060685;28;20133;-71
2021/10/16 00:09:11;;;;;;;33.28;11.80;;;1.80;99.90;;;;;;5039086;28;20040;-71
2021/10/16 00:11:38;;;;;;;29.73;11.25;;;1.80;99.90;;;;;;5041114;28;20098;-71
2021/10/16 00:14:05;;;;;;;26.15;11.13;;;1.70;99.90;;;;;;5045139;28;20052;-70
2021/10/16 00:16:32;;;;;;;32.95;13.23;;;1.70;99.90;;;;;;5071058;28;20063;-70
2021/10/16 00:18:59;;;;;;;34.53;12.88;;;1.70;99.90;;;;;;5047614;28;20032;-70
2021/10/16 00:21:26;;;;;;;31.98;13.25;;;1.70;99.90;;;;;;5044630;28;20106;-70
2021/10/16 00:23:53;;;;;;;35.83;13.68;;;1.70;99.90;;;;;;5046301;28;20039;-70
2021/10/16 00:26:20;;;;;;;36.55;11.88;;;1.60;99.90;;;;;;5047490;28;20044;-70
2021/10/16 00:28:46;;;;;;;28.55;12.07;;;1.70;99.90;;;;;;5048159;28;20055;-70
2021/10/16 00:31:13;;;;;;;23.92;11.48;;;1.70;99.90;;;;;;5046678;28;20070;-70
2021/10/16 00:33:40;;;;;;;32.50;12.13;;;1.60;99.90;;;;;;5048567;28;20059;-70
2021/10/16 00:36:07;;;;;;;23.05;10.70;;;1.80;99.90;;;;;;5063657;28;20078;-70
2021/10/16 00:38:34;;;;;;;34.42;11.68;;;1.60;99.90;;;;;;5062399;28;20040;-70
2021/10/16 00:41:01;;;;;;;35.17;11.82;;;1.70;99.90;;;;;;5046995;28;20131;-70
2021/10/16 00:43:28;;;;;;;21.92;10.70;;;1.80;99.90;;;;;;5064589;28;20055;-70
2021/10/16 00:45:55;;;;;;;46.17;13.68;;;1.80;99.90;;;;;;5062399;28;20062;-70
2021/10/16 00:48:22;;;;;;;27.98;11.48;;;1.70;99.90;;;;;;5030155;28;20046;-70
2021/10/16 00:50:49;;;;;;;36.60;12.07;;;1.70;99.90;;;;;;5062454;28;20512;-70
2021/10/16 00:53:16;;;;;;;33.67;12.32;;;1.60;99.90;;;;;;5075957;28;20745;-69
2021/10/16 00:55:44;;;;;;;32.72;10.00;;;1.70;99.90;;;;;;5065582;28;20144;-69
2021/10/16 00:58:12;;;;;;;36.78;11.93;;;1.70;99.90;;;;;;5046672;28;20048;-69
2021/10/16 01:00:39;;;;;;;30.70;11.02;;;1.60;99.90;;;;;;5040937;28;20127;-69
2021/10/16 01:03:06;;;;;;;34.00;11.93;;;1.60;99.90;;;;;;5030299;28;20109;-68
2021/10/16 01:05:34;;;;;;;28.92;10.55;;;1.70;99.90;;;;;;5046434;28;20445;-69
2021/10/16 01:08:02;;;;;;;29.65;11.18;;;1.50;99.90;;;;;;5062704;28;20233;-69
2021/10/16 01:10:30;;;;;;;37.22;11.23;;;1.50;99.90;;;;;;5061322;28;20047;-69
2021/10/16 01:13:00;;;;;;;33.97;10.95;;;1.40;99.90;;;;;;5066326;28;20428;-70
2021/10/16 01:15:32;;;;;;;40.15;11.48;;;1.40;99.90;;;;;;5063046;28;20622;-70
2021/10/16 01:17:59;;;;;;;26.52;10.23;;;1.50;99.90;;;;;;5062364;28;20052;-69
2021/10/16 01:20:30;;;;;;;23.38;9.65;;;1.50;99.90;;;;;;5081576;28;20058;-70
2021/10/16 01:22:59;;;;;;;26.80;9.35;;;1.40;99.90;;;;;;5074628;28;20503;-69
2021/10/16 01:25:26;;;;;;;26.08;9.20;;;1.30;99.90;;;;;;5049524;28;20044;-69
2021/10/16 01:27:54;;;;;;;34.10;11.88;;;1.30;99.90;;;;;;5065060;28;20043;-69
2021/10/16 01:30:22;;;;;;;26.73;9.52;;;1.40;99.90;;;;;;5057785;28;20086;-69
2021/10/16 01:32:50;;;;;;;34.95;11.13;;;1.40;99.90;;;;;;5080991;28;20059;-69
2021/10/16 01:35:17;;;;;;;27.13;9.88;;;1.30;99.90;;;;;;5062827;28;20096;-68
2021/10/16 01:37:49;;;;;;;28.52;10.02;;;1.20;99.90;;;;;;5063374;28;20123;-68
2021/10/16 01:40:20;;;;;;;28.02;10.32;;;1.40;99.90;;;;;;5045208;28;20059;-68
2021/10/16 01:42:49;;;;;;;28.35;10.82;;;1.50;99.90;;;;;;5051946;28;20496;-67
2021/10/16 01:45:20;;;;;;;39.97;12.38;;;1.60;99.90;;;;;;5044439;28;20052;-68
2021/10/16 01:47:54;;;;;;;34.25;11.07;;;1.60;99.90;;;;;;5029890;28;20162;-68
2021/10/16 01:50:41;;;;;;;31.25;10.25;;;1.50;99.90;;;;;;5043862;28;20044;-68
2021/10/16 01:53:20;;;;;;;41.47;11.05;;;1.40;99.90;;;;;;5057750;28;20416;-68
2021/10/16 01:55:53;;;;;;;34.28;10.98;;;1.50;99.90;;;;;;5044923;28;20048;-68
2021/10/16 01:58:23;;;;;;;33.08;10.93;;;1.50;99.90;;;;;;5029988;28;20044;-68
2021/10/16 02:01:09;;;;;;;40.20;12.00;;;1.50;99.90;;;;;;5042575;28;20044;-68
2021/10/16 02:03:37;;;;;;;26.25;9.30;;;1.70;99.90;;;;;;5046170;28;20334;-68
2021/10/16 02:06:09;;;;;;;31.58;10.60;;;1.70;99.90;;;;;;5046268;28;20043;-68
2021/10/16 02:08:44;;;;;;;73.15;14.55;;;1.70;99.90;;;;;;5061934;28;20197;-68
2021/10/16 02:11:10;;;;;;;51.33;13.35;;;1.50;99.90;;;;;;5043014;28;20109;-68
2021/10/16 02:13:51;;;;;;;61.78;14.65;;;1.50;99.90;;;;;;5046373;28;20048;-68
2021/10/16 02:16:19;;;;;;;44.28;11.38;;;1.50;99.90;;;;;;5044700;28;20040;-68
2021/10/16 02:19:06;;;;;;;38.97;9.80;;;1.30;99.90;;;;;;5046124;28;20567;-68
2021/10/16 02:21:35;;;;;;;43.80;11.32;;;1.30;99.90;;;;;;5040282;28;20059;-68
2021/10/16 02:24:04;;;;;;;42.60;11.15;;;1.30;99.90;;;;;;5042005;28;20079;-68
2021/10/16 02:26:38;;;;;;;40.60;13.10;;;1.20;99.90;;;;;;5042922;28;20146;-68
2021/10/16 02:29:06;;;;;;;36.45;10.93;;;1.10;99.90;;;;;;5059861;28;20207;-68
2021/10/16 02:31:36;;;;;;;30.33;9.88;;;1.10;99.90;;;;;;5059824;28;20138;-68
2021/10/16 02:34:07;;;;;;;43.63;12.45;;;1.10;99.90;;;;;;5060192;28;20118;-68
2021/10/16 02:36:51;;;;;;;43.97;11.27;;;1.10;99.90;;;;;;5044003;28;20044;-68
2021/10/16 02:39:17;;;;;;;36.10;10.60;;;1.20;99.90;;;;;;5043948;28;20513;-68
2021/10/16 02:41:44;;;;;;;42.13;11.70;;;1.40;99.90;;;;;;5042243;28;20518;-68
2021/10/16 02:44:11;;;;;;;43.60;12.10;;;1.30;99.90;;;;;;5043411;28;20055;-68
2021/10/16 02:46:44;;;;;;;41.83;11.00;;;1.10;99.90;;;;;;5042415;28;20072;-68
2021/10/16 02:49:10;;;;;;;40.33;11.05;;;1.20;99.90;;;;;;5043281;28;20151;-68
2021/10/16 02:51:37;;;;;;;40.03;10.95;;;1.20;99.90;;;;;;5046520;28;20102;-68
2021/10/16 02:54:04;;;;;;;50.78;11.73;;;1.20;99.90;;;;;;5045569;28;20089;-68
2021/10/16 02:56:31;;;;;;;40.38;11.05;;;1.10;99.90;;;;;;5059579;28;20048;-68
2021/10/16 02:59:07;;;;;;;28.95;9.90;;;1.10;99.90;;;;;;5028170;28;20058;-68
2021/10/16 03:01:44;;;;;;;35.75;11.38;;;1.20;99.90;;;;;;5058949;28;20044;-68
2021/10/16 03:04:11;;;;;;;37.03;10.27;;;1.30;99.90;;;;;;5059979;28;20562;-68
2021/10/16 03:06:40;;;;;;;40.35;11.20;;;1.30;99.90;;;;;;5059829;28;20456;-68
2021/10/16 03:09:07;;;;;;;42.42;11.82;;;1.50;99.90;;;;;;5041855;28;20200;-68
2021/10/16 03:11:37;;;;;;;50.78;13.73;;;1.50;99.90;;;;;;5043870;28;20047;-69
2021/10/16 03:14:04;;;;;;;50.95;13.25;;;1.50;99.90;;;;;;5060643;28;20044;-69
2021/10/16 03:16:35;;;;;;;49.88;13.60;;;1.50;99.90;;;;;;5041517;28;20411;-69
2021/10/16 03:19:06;;;;;;;53.20;13.40;;;1.40;99.90;;;;;;5043242;28;20157;-69
2021/10/16 03:21:34;;;;;;;52.17;12.73;;;1.30;99.90;;;;;;5020435;28;20083;-70
2021/10/16 03:24:05;;;;;;;106.53;17.70;;;1.20;99.90;;;;;;5044536;28;20040;-69
2021/10/16 03:26:32;;;;;;;110.57;19.65;;;1.30;99.90;;;;;;5043208;28;20492;-69
2021/10/16 03:28:59;;;;;;;220.32;25.48;;;1.10;99.90;;;;;;5044515;28;20052;-69
2021/10/16 03:31:25;;;;;;;126.80;21.25;;;1.00;99.90;;;;;;5042328;28;20533;-69
2021/10/16 03:33:53;;;;;;;162.82;24.38;;;1.00;99.90;;;;;;5040637;28;20063;-69
2021/10/16 03:36:20;;;;;;;165.45;22.15;;;0.90;99.90;;;;;;5058272;28;20607;-68
2021/10/16 03:38:48;;;;;;;127.13;20.65;;;1.00;99.90;;;;;;5043066;28;20396;-70
2021/10/16 03:41:15;;;;;;;100.32;19.27;;;1.20;99.90;;;;;;5043821;28;20570;-69
2021/10/16 03:43:43;;;;;;;84.57;18.13;;;1.30;99.90;;;;;;5003196;28;20501;-70
2021/10/16 03:46:11;;;;;;;63.35;14.52;;;1.10;99.90;;;;;;5045438;28;20036;-68
2021/10/16 03:48:40;;;;;;;60.92;15.48;;;1.10;99.90;;;;;;5038416;28;20450;-71
2021/10/16 03:51:09;;;;;;;56.13;14.25;;;1.00;99.90;;;;;;5024347;28;20111;-70
2021/10/16 03:53:36;;;;;;;39.85;12.82;;;0.90;99.90;;;;;;5041580;28;20531;-68
2021/10/16 03:56:04;;;;;;;52.53;12.88;;;0.90;99.90;;;;;;5058933;28;20068;-70
2021/10/16 03:58:31;;;;;;;50.13;12.63;;;0.90;99.90;;;;;;5043116;28;20060;-69
2021/10/16 04:01:02;;;;;;;40.03;12.35;;;1.00;99.90;;;;;;5041139;28;20044;-70
2021/10/16 04:03:30;;;;;;;160.57;22.52;;;1.10;99.90;;;;;;5027210;28;20539;-68
2021/10/16 04:05:58;;;;;;;48.75;12.38;;;1.10;99.90;;;;;;5042806;28;20131;-68
2021/10/16 04:08:25;;;;;;;35.00;12.20;;;1.00;99.90;;;;;;5043578;28;20408;-68
2021/10/16 04:10:52;;;;;;;40.40;11.85;;;0.90;99.90;;;;;;5042310;28;20051;-68
2021/10/16 04:13:19;;;;;;;39.30;11.10;;;0.90;99.90;;;;;;5042032;28;20611;-68
2021/10/16 04:15:51;;;;;;;38.42;10.57;;;0.90;99.90;;;;;;5042302;28;20080;-69
2021/10/16 04:18:18;;;;;;;33.38;11.48;;;0.80;99.90;;;;;;5023237;28;20159;-68
2021/10/16 04:20:45;;;;;;;42.10;11.73;;;0.80;99.90;;;;;;5040891;28;20076;-68
2021/10/16 04:23:12;;;;;;;38.95;12.05;;;0.70;99.90;;;;;;5037330;28;20388;-68
2021/10/16 04:25:39;;;;;;;40.10;11.07;;;0.80;99.90;;;;;;5042759;28;20478;-68
2021/10/16 04:28:06;;;;;;;35.42;11.90;;;0.70;99.90;;;;;;5022792;28;20063;-68
2021/10/16 04:30:39;;;;;;;36.67;11.30;;;0.70;99.90;;;;;;5025993;28;20124;-68
2021/10/16 04:33:07;;;;;;;45.72;13.18;;;0.70;99.90;;;;;;5027449;28;20551;-68
2021/10/16 04:35:35;;;;;;;32.15;10.23;;;0.70;99.90;;;;;;5043584;28;20052;-68
2021/10/16 04:38:01;;;;;;;41.25;12.05;;;0.90;99.90;;;;;;5028369;28;20120;-68
2021/10/16 04:40:29;;;;;;;38.75;11.25;;;0.90;99.90;;;;;;5043250;28;20079;-68
2021/10/16 04:42:56;;;;;;;40.28;12.35;;;1.00;99.90;;;;;;5060627;28;20301;-68
2021/10/16 04:45:24;;;;;;;37.30;11.93;;;1.10;99.90;;;;;;5042911;28;20049;-68
2021/10/16 04:47:54;;;;;;;43.63;13.82;;;1.10;99.90;;;;;;5043350;28;20208;-68
2021/10/16 04:50:24;;;;;;;39.25;11.65;;;1.00;99.90;;;;;;5027400;28;20048;-68
2021/10/16 04:52:52;;;;;;;45.28;12.82;;;1.10;99.90;;;;;;5022773;28;20438;-68
2021/10/16 04:55:26;;;;;;;38.70;12.95;;;1.20;99.90;;;;;;5046390;28;20149;-68
2021/10/16 04:57:53;;;;;;;34.70;11.65;;;1.20;99.90;;;;;;5043450;28;20619;-68
2021/10/16 05:00:24;;;;;;;44.15;12.88;;;1.20;99.90;;;;;;5061510;28;20489;-68
2021/10/16 05:02:51;;;;;;;43.70;12.98;;;1.20;99.90;;;;;;5008637;28;20052;-68
2021/10/16 05:05:18;;;;;;;32.35;11.88;;;1.20;99.90;;;;;;5027469;28;20045;-68
2021/10/16 05:07:45;;;;;;;87.32;18.30;;;1.10;99.90;;;;;;5045095;28;20057;-68
2021/10/16 05:10:13;;;;;;;52.55;14.10;;;1.10;99.90;;;;;;5044073;28;20048;-68
2021/10/16 05:12:40;;;;;;;57.25;14.48;;;1.10;99.90;;;;;;5060971;28;20066;-68
2021/10/16 05:15:08;;;;;;;49.33;15.27;;;1.10;99.90;;;;;;5061389;28;20155;-68
2021/10/16 05:17:37;;;;;;;47.85;15.50;;;1.30;99.90;;;;;;5056756;28;20057;-68
2021/10/16 05:20:11;;;;;;;48.05;17.30;;;1.40;99.90;;;;;;5063233;28;20044;-69
2021/10/16 05:22:47;;;;;;;42.10;15.20;;;1.40;99.90;;;;;;5026490;28;20523;-69
2021/10/16 05:25:16;;;;;;;45.30;15.57;;;1.50;99.90;;;;;;5043767;28;20049;-68
2021/10/16 05:27:43;;;;;;;45.72;15.38;;;1.60;99.90;;;;;;5027273;28;20110;-69
2021/10/16 05:30:11;;;;;;;51.42;14.88;;;1.60;99.90;;;;;;5060649;28;20341;-69
2021/10/16 05:32:38;;;;;;;58.33;16.10;;;1.60;99.90;;;;;;5030763;28;20048;-69
2021/10/16 05:35:10;;;;;;;43.35;14.02;;;1.60;99.90;;;;;;5061380;28;20266;-69
2021/10/16 05:37:38;;;;;;;43.63;13.85;;;1.50;99.90;;;;;;5027947;28;20059;-69
2021/10/16 05:40:06;;;;;;;47.55;13.68;;;1.60;99.90;;;;;;5043173;28;20062;-69
2021/10/16 05:42:32;;;;;;;40.28;13.50;;;1.60;99.90;;;;;;5041490;28;20051;-69
2021/10/16 05:45:01;;;;;;;43.17;12.90;;;1.60;99.90;;;;;;5041824;28;20582;-69
2021/10/16 05:47:30;;;;;;;54.28;14.48;;;1.60;99.90;;;;;;5042037;28;20319;-70
2021/10/16 05:49:58;;;;;;;41.72;14.68;;;1.70;99.90;;;;;;5038348;28;20052;-70
2021/10/16 05:52:27;;;;;;;50.53;16.00;;;1.70;99.90;;;;;;5032105;28;20037;-68
2021/10/16 05:54:53;;;;;;;49.47;17.17;;;1.70;99.90;;;;;;5040713;28;20147;-69
2021/10/16 05:57:22;;;;;;;73.78;30.60;;;1.70;99.90;;;;;;5059006;28;20040;-69
2021/10/16 05:59:49;;;;;;;52.28;20.05;;;1.80;99.90;;;;;;5058939;28;20052;-69
2021/10/16 06:02:17;;;;;;;56.15;17.45;;;1.70;99.90;;;;;;5039688;28;20044;-69
2021/10/16 06:04:48;;;;;;;55.10;18.30;;;1.80;99.90;;;;;;5059681;28;20091;-70
2021/10/16 06:07:16;;;;;;;66.95;24.33;;;1.80;99.90;;;;;;5025543;28;20348;-69
2021/10/16 06:09:44;;;;;;;67.78;22.17;;;2.00;99.90;;;;;;5042447;28;20105;-69
2021/10/16 06:12:13;;;;;;;61.55;20.20;;;1.90;99.90;;;;;;5026922;28;20110;-69
2021/10/16 06:14:42;;;;;;;63.10;21.02;;;1.90;99.90;;;;;;5025907;28;20060;-69
2021/10/16 06:17:21;;;;;;;49.80;18.92;;;1.90;99.90;;;;;;5047106;28;20074;-69
2021/10/16 06:19:48;;;;;;;82.07;21.88;;;2.00;99.90;;;;;;5029884;28;20144;-70
2021/10/16 06:22:15;;;;;;;54.50;20.38;;;2.10;99.90;;;;;;5061174;28;20040;-70
2021/10/16 06:24:43;;;;;;;52.63;19.65;;;2.10;99.90;;;;;;5029497;28;20069;-70
2021/10/16 06:27:10;;;;;;;60.50;22.70;;;2.40;99.90;;;;;;5062233;28;20466;-70
2021/10/16 06:29:37;;;;;;;64.30;22.77;;;2.40;99.90;;;;;;5062625;28;20360;-70
2021/10/16 06:32:04;;;;;;;70.22;23.50;;;2.50;99.90;;;;;;5025348;28;20048;-71
2021/10/16 06:34:32;;;;;;;64.28;23.70;;;2.40;99.90;;;;;;5039755;28;20049;-72
2021/10/16 06:36:58;;;;;;;77.85;36.28;;;2.60;99.90;;;;;;5042524;28;20135;-72
2021/10/16 06:39:26;;;;;;;66.22;23.48;;;2.40;99.90;;;;;;5027802;28;20055;-72
2021/10/16 06:41:58;;;;;;;67.15;23.50;;;2.40;99.90;;;;;;5061436;28;20044;-72
2021/10/16 06:44:25;;;;;;;60.47;22.40;;;2.50;99.90;;;;;;5050949;28;20054;-72
2021/10/16 06:47:23;;;;;;;77.18;25.65;;;2.60;99.90;;;;;;5058402;28;20040;-72
2021/10/16 06:49:50;;;;;;;68.07;26.00;;;2.90;99.90;;;;;;5044866;28;20089;-73
2021/10/16 06:52:16;;;;;;;95.32;32.25;;;2.90;99.90;;;;;;5044351;28;20067;-72
2021/10/16 06:54:43;;;;;;;86.85;35.67;;;3.00;99.90;;;;;;5048033;28;20539;-72
2021/10/16 06:57:12;;;;;;;80.00;28.33;;;3.10;99.90;;;;;;5043686;28;20047;-72
2021/10/16 06:59:40;;;;;;;80.95;28.90;;;3.40;99.90;;;;;;5062450;28;20548;-72
2021/10/16 07:02:09;;;;;;;82.47;27.83;;;3.30;99.90;;;;;;5043780;28;20135;-74
2021/10/16 07:04:47;;;;;;;86.30;31.73;;;3.40;99.90;;;;;;5056586;28;20111;-74
2021/10/16 07:07:13;;;;;;;81.50;27.90;;;3.40;99.90;;;;;;5036276;28;20043;-71
2021/10/16 07:09:48;;;;;;;87.15;28.27;;;3.60;99.90;;;;;;5046631;28;20052;-71
2021/10/16 07:12:15;;;;;;;92.63;32.63;;;3.80;99.90;;;;;;5079055;28;20062;-72
2021/10/16 07:14:42;;;;;;;96.05;31.48;;;3.80;99.90;;;;;;5065622;28;20043;-72
2021/10/16 07:17:12;;;;;;;81.18;31.65;;;3.90;99.90;;;;;;5065378;28;20048;-72
2021/10/16 07:19:39;;;;;;;76.97;33.90;;;4.00;99.90;;;;;;5042695;28;20048;-72
2021/10/16 07:22:07;;;;;;;87.10;35.85;;;4.20;99.90;;;;;;5060918;28;20149;-72
2021/10/16 07:24:34;;;;;;;108.22;42.70;;;4.40;99.90;;;;;;5047041;28;20044;-72
2021/10/16 07:27:01;;;;;;;99.90;46.10;;;4.50;99.90;;;;;;5059053;28;20052;-72
2021/10/16 07:29:28;;;;;;;135.98;61.33;;;4.60;99.90;;;;;;5061899;28;20419;-73
2021/10/16 07:31:54;;;;;;;99.20;37.97;;;4.70;99.90;;;;;;5044246;28;20105;-72
2021/10/16 07:34:22;;;;;;;80.70;32.00;;;4.70;99.90;;;;;;5041763;28;20051;-72
2021/10/16 07:36:49;;;;;;;75.90;32.72;;;4.80;99.90;;;;;;5058802;28;20199;-72
2021/10/16 07:39:16;;;;;;;87.25;34.97;;;5.10;99.90;;;;;;5028008;28;20041;-72
2021/10/16 07:41:46;;;;;;;86.05;35.85;;;5.20;99.90;;;;;;5060223;28;20088;-72
2021/10/16 07:44:15;;;;;;;98.20;37.10;;;5.50;99.90;;;;;;5044291;28;20094;-72
2021/10/16 07:46:44;;;;;;;93.70;37.05;;;5.50;99.90;;;;;;5035922;28;20044;-72
2021/10/16 07:49:11;;;;;;;85.32;40.15;;;5.50;99.90;;;;;;5039618;28;20044;-71
2021/10/16 07:51:38;;;;;;;104.55;45.30;;;5.60;99.90;;;;;;5042212;28;20110;-72
2021/10/16 07:54:05;;;;;;;102.57;50.95;;;5.70;99.90;;;;;;5074293;28;20055;-72
2021/10/16 07:56:32;;;;;;;91.68;49.65;;;5.80;99.90;;;;;;5041260;28;20052;-73
2021/10/16 07:58:59;;;;;;;98.75;46.72;;;5.90;99.90;;;;;;5043717;28;20044;-72
2021/10/16 08:01:31;;;;;;;92.65;46.20;;;6.00;99.90;;;;;;5043667;28;20515;-71
2021/10/16 08:03:59;;;;;;;83.68;44.90;;;6.10;99.90;;;;;;5041112;28;20562;-72
2021/10/16 08:06:26;;;;;;;78.38;43.83;;;6.30;99.90;;;;;;5062240;28;20052;-71
2021/10/16 08:08:54;;;;;;;87.75;45.83;;;6.40;99.90;;;;;;5043859;28;20139;-72
2021/10/16 08:11:44;;;;;;;90.50;48.90;;;6.50;99.90;;;;;;5029419;28;20442;-73
2021/10/16 08:14:10;;;;;;;80.53;44.15;;;6.60;99.90;;;;;;5044701;28;20064;-72
2021/10/16 08:16:38;;;;;;;75.00;40.45;;;6.60;99.90;;;;;;5043243;28;20051;-71
2021/10/16 08:19:05;;;;;;;63.85;34.67;;;6.80;99.90;;;;;;5058621;28;20102;-71
2021/10/16 08:21:32;;;;;;;65.35;36.42;;;7.00;99.90;;;;;;5040010;28;20048;-71
2021/10/16 08:23:58;;;;;;;52.45;25.92;;;7.10;99.90;;;;;;5069747;28;20430;-71
2021/10/16 08:26:25;;;;;;;56.45;27.35;;;7.30;99.90;;;;;;5027315;28;20040;-71
2021/10/16 08:28:52;;;;;;;54.42;25.35;;;7.20;99.90;;;;;;5007233;28;20718;-72
2021/10/16 08:31:19;;;;;;;57.10;24.15;;;7.30;99.90;;;;;;5040086;28;20071;-71
2021/10/16 08:33:46;;;;;;;52.17;22.15;;;7.30;99.90;;;;;;5043727;28;20101;-71
2021/10/16 08:36:13;;;;;;;42.72;20.52;;;7.50;99.90;;;;;;5062386;28;20479;-71
2021/10/16 08:38:41;;;;;;;41.47;21.60;;;7.60;99.90;;;;;;5047226;28;20051;-70
2021/10/16 08:41:12;;;;;;;42.38;21.90;;;7.80;99.90;;;;;;5044806;28;20279;-71
2021/10/16 08:43:42;;;;;;;33.30;18.52;;;7.90;99.90;;;;;;5047131;28;20048;-72
2021/10/16 08:46:09;;;;;;;35.35;17.58;;;8.00;99.90;;;;;;5061427;28;20127;-71
2021/10/16 08:48:40;;;;;;;44.58;20.08;;;8.00;99.90;;;;;;5028292;28;20646;-72
2021/10/16 08:51:08;;;;;;;35.45;19.23;;;8.10;99.90;;;;;;5059920;28;20518;-72
2021/10/16 08:53:36;;;;;;;37.13;16.55;;;8.30;99.90;;;;;;5057894;28;20044;-71
2021/10/16 08:56:06;;;;;;;37.50;15.98;;;8.40;99.90;;;;;;5077432;28;20399;-71
2021/10/16 08:58:34;;;;;;;38.33;14.70;;;8.50;99.90;;;;;;5046137;28;20535;-72
2021/10/16 09:01:04;;;;;;;31.77;16.08;;;8.70;99.90;;;;;;5060234;28;20095;-72
2021/10/16 09:03:34;;;;;;;32.30;14.68;;;8.70;99.90;;;;;;5047405;28;20097;-72
2021/10/16 09:06:11;;;;;;;40.58;18.00;;;8.70;99.90;;;;;;5062509;28;20109;-72
2021/10/16 09:08:53;;;;;;;31.38;15.48;;;8.80;99.90;;;;;;5047398;28;20052;-72
2021/10/16 09:11:27;;;;;;;36.00;17.02;;;9.00;99.90;;;;;;5062057;28;20050;-72
2021/10/16 09:14:05;;;;;;;27.05;14.95;;;9.20;99.90;;;;;;5031603;28;20082;-72
2021/10/16 09:16:39;;;;;;;37.63;15.82;;;9.30;99.90;;;;;;5061701;28;20393;-72
2021/10/16 09:19:11;;;;;;;24.70;13.45;;;9.40;99.90;;;;;;5061726;28;20076;-72
2021/10/16 09:21:50;;;;;;;33.97;12.43;;;9.50;99.90;;;;;;5075307;28;20447;-72
2021/10/16 09:24:29;;;;;;;34.42;12.93;;;9.60;99.90;;;;;;5042299;28;20036;-71
2021/10/16 09:26:58;;;;;;;25.77;13.40;;;9.60;99.90;;;;;;5044984;28;20204;-72
2021/10/16 09:29:32;;;;;;;26.77;12.32;;;9.60;99.90;;;;;;5046246;28;20036;-72
2021/10/16 09:32:13;;;;;;;33.78;13.75;;;9.60;99.90;;;;;;5058514;28;20075;-72
2021/10/16 09:34:41;;;;;;;32.33;12.48;;;9.80;99.90;;;;;;5035177;28;20398;-72
2021/10/16 09:37:17;;;;;;;29.77;11.93;;;9.80;99.90;;;;;;5045886;28;20051;-73
2021/10/16 09:39:47;;;;;;;26.92;13.70;;;9.90;99.90;;;;;;5044610;28;20079;-72
2021/10/16 09:42:17;;;;;;;28.73;11.80;;;9.90;99.90;;;;;;5044580;28;20063;-72
2021/10/16 09:44:44;;;;;;;28.20;11.07;;;9.90;99.90;;;;;;5044821;28;20079;-72
2021/10/16 09:47:18;;;;;;;25.65;10.77;;;10.10;99.90;;;;;;5045854;28;20506;-72
2021/10/16 09:49:46;;;;;;;30.42;11.82;;;10.20;99.90;;;;;;5049234;28;20101;-72
2021/10/16 09:52:18;;;;;;;25.02;9.43;;;10.30;99.90;;;;;;5045313;28;20116;-73
2021/10/16 09:54:50;;;;;;;38.33;15.93;;;10.40;99.90;;;;;;5061211;28;20050;-73
2021/10/16 09:57:21;;;;;;;43.17;21.58;;;10.50;99.90;;;;;;5061607;28;20040;-72
2021/10/16 09:59:48;;;;;;;24.83;10.18;;;10.50;99.90;;;;;;5061979;28;20131;-73
2021/10/16 10:02:16;;;;;;;39.10;19.98;;;10.50;99.90;;;;;;5044808;28;20044;-73
2021/10/16 10:04:45;;;;;;;22.73;8.82;;;10.60;99.90;;;;;;5062676;28;20048;-72
2021/10/16 10:07:14;;;;;;;27.58;12.43;;;10.70;99.90;;;;;;5042799;28;20434;-72
2021/10/16 10:09:43;;;;;;;26.70;9.65;;;10.80;99.90;;;;;;5078720;28;20272;-72
2021/10/16 10:12:15;;;;;;;17.48;10.15;;;10.80;99.90;;;;;;5044180;28;20055;-72
2021/10/16 10:14:48;;;;;;;27.83;9.18;;;10.80;99.90;;;;;;5061632;28;20135;-71
2021/10/16 10:17:26;;;;;;;23.77;9.15;;;11.00;99.90;;;;;;5040669;28;20088;-72
2021/10/16 10:20:05;;;;;;;15.65;9.27;;;11.10;99.90;;;;;;5057144;28;20043;-72
2021/10/16 10:22:34;;;;;;;21.20;8.38;;;11.30;99.90;;;;;;5044139;28;20132;-72
2021/10/16 10:25:02;;;;;;;19.15;8.00;;;11.50;99.90;;;;;;5043717;28;20044;-71
2021/10/16 10:27:42;;;;;;;12.55;7.43;;;11.50;99.90;;;;;;5025900;28;20401;-71
2021/10/16 10:30:39;;;;;;;16.65;8.32;;;11.70;99.90;;;;;;5043987;28;20082;-71
2021/10/16 10:33:15;;;;;;;19.52;10.55;;;11.60;99.90;;;;;;5044980;28;20054;-71
2021/10/16 10:35:58;;;;;;;22.55;9.35;;;11.80;99.90;;;;;;5059155;28;20105;-72
2021/10/16 10:38:32;;;;;;;14.03;7.87;;;12.00;99.90;;;;;;5044829;28;20054;-72
2021/10/16 10:41:25;;;;;;;17.35;8.55;;;12.30;99.90;;;;;;5059868;28;20789;-72
2021/10/16 10:43:54;;;;;;;12.27;7.68;;;12.30;99.90;;;;;;5060292;28;20583;-72
2021/10/16 10:46:25;;;;;;;16.63;8.07;;;12.20;99.90;;;;;;5042426;28;20052;-72
2021/10/16 10:48:52;;;;;;;16.88;7.53;;;12.20;99.90;;;;;;5043192;28;20174;-72
2021/10/16 10:51:28;;;;;;;14.77;6.28;;;12.10;99.90;;;;;;5039767;28;20040;-72
2021/10/16 10:54:20;;;;;;;12.23;6.18;;;11.90;99.90;;;;;;5058283;28;20044;-72
2021/10/16 10:56:52;;;;;;;11.05;5.43;;;11.90;99.90;;;;;;5026478;28;20071;-71
2021/10/16 10:59:20;;;;;;;13.95;4.88;;;11.90;99.90;;;;;;5044479;28;20459;-72
2021/10/16 11:02:08;;;;;;;9.57;5.00;;;11.80;99.90;;;;;;5042553;28;20087;-72
2021/10/16 11:04:44;;;;;;;7.20;5.65;;;11.70;99.90;;;;;;5061232;28;20076;-71
2021/10/16 11:07:17;;;;;;;19.20;6.22;;;11.40;99.90;;;;;;5042761;28;20652;-72
2021/10/16 11:09:44;;;;;;;13.43;6.18;;;11.10;99.90;;;;;;5043888;28;20328;-72
2021/10/16 11:12:12;;;;;;;16.52;7.10;;;11.00;99.90;;;;;;5041326;28;20050;-72
2021/10/16 11:14:42;;;;;;;9.98;6.72;;;10.90;99.90;;;;;;5059374;28;20052;-71
2021/10/16 11:17:12;;;;;;;11.70;6.43;;;10.90;99.90;;;;;;5047595;28;20097;-71
2021/10/16 11:19:56;;;;;;;13.95;6.03;;;10.90;99.90;;;;;;5042134;28;20087;-70
2021/10/16 11:22:39;;;;;;;8.23;5.57;;;11.00;99.90;;;;;;5063503;28;20048;-71
2021/10/16 11:25:06;;;;;;;9.80;5.45;;;11.10;99.90;;;;;;5043586;28;20353;-71
2021/10/16 11:27:33;;;;;;;12.93;6.43;;;11.10;99.90;;;;;;5050559;28;20082;-71
2021/10/16 11:30:02;;;;;;;13.52;6.15;;;11.00;99.90;;;;;;5052047;28;20071;-70
2021/10/16 11:32:33;;;;;;;13.63;8.10;;;11.10;99.90;;;;;;5064594;28;20442;-70
2021/10/16 11:35:03;;;;;;;11.10;6.15;;;11.30;99.90;;;;;;5100101;28;20051;-71
2021/10/16 11:37:46;;;;;;;10.77;6.88;;;11.30;99.90;;;;;;5063033;28;20600;-69
2021/10/16 11:40:21;;;;;;;18.27;8.02;;;11.20;99.90;;;;;;5062945;28;20039;-71
2021/10/16 11:42:52;;;;;;;10.88;7.60;;;11.10;99.90;;;;;;5064106;28;20053;-69
2021/10/16 11:45:22;;;;;;;15.85;7.20;;;10.90;99.90;;;;;;5061939;28;20040;-71
2021/10/16 11:47:53;;;;;;;11.65;8.18;;;11.00;99.90;;;;;;5057903;28;20052;-71
2021/10/16 11:50:22;;;;;;;11.70;6.82;;;11.10;99.90;;;;;;5041953;28;20355;-71
2021/10/16 11:53:04;;;;;;;8.48;6.43;;;11.20;99.90;;;;;;5043928;28;20055;-72
2021/10/16 11:55:37;;;;;;;12.30;8.23;;;11.10;99.90;;;;;;5041384;28;20048;-72
2021/10/16 11:58:16;;;;;;;15.95;7.63;;;11.30;99.90;;;;;;5045001;28;20487;-71
2021/10/16 12:00:53;;;;;;;13.55;6.85;;;11.50;99.90;;;;;;5034270;28;20101;-71
2021/10/16 12:04:00;;;;;;;17.02;6.00;;;11.50;99.90;;;;;;5028309;28;20076;-71
2021/10/16 12:06:38;;;;;;;14.27;7.05;;;11.50;99.90;;;;;;5038599;28;20048;-71
2021/10/16 12:09:24;;;;;;;9.75;5.78;;;11.40;99.90;;;;;;5060787;28;20057;-72
2021/10/16 12:12:03;;;;;;;12.27;6.30;;;11.30;99.90;;;;;;5034207;28;20052;-70
2021/10/16 12:14:40;;;;;;;14.20;6.53;;;11.30;99.90;;;;;;5063794;28;20063;-71
2021/10/16 12:17:18;;;;;;;9.57;6.32;;;11.30;99.90;;;;;;5050245;28;20041;-71
2021/10/16 12:20:02;;;;;;;12.60;7.65;;;11.20;99.90;;;;;;5051316;28;20040;-71
2021/10/16 12:22:33;;;;;;;10.05;6.47;;;11.00;99.90;;;;;;5047383;28;20054;-73
2021/10/16 12:25:06;;;;;;;12.13;7.32;;;11.00;99.90;;;;;;5052870;28;20562;-71
2021/10/16 12:27:35;;;;;;;10.50;6.63;;;10.80;99.90;;;;;;5028397;28;20127;-71
2021/10/16 12:30:11;;;;;;;8.55;6.53;;;10.80;99.90;;;;;;5028466;28;20044;-74
2021/10/16 12:33:12;;;;;;;13.68;8.38;;;10.90;99.90;;;;;;5042168;28;20197;-70
2021/10/16 12:36:00;;;;;;;16.90;8.35;;;10.90;99.90;;;;;;5059744;28;20121;-73
2021/10/16 12:38:47;;;;;;;21.77;7.97;;;10.80;99.90;;;;;;5033491;28;20039;-71
2021/10/16 12:41:33;;;;;;;13.15;7.13;;;10.70;99.90;;;;;;5044884;28;20044;-70
2021/10/16 12:44:19;;;;;;;9.18;6.50;;;10.60;99.90;;;;;;5030440;28;20133;-72
2021/10/16 12:47:10;;;;;;;13.80;6.18;;;10.80;99.90;;;;;;5037346;28;20246;-72
2021/10/16 12:49:52;;;;;;;12.98;6.55;;;11.00;99.90;;;;;;5064081;28;20105;-72
2021/10/16 12:52:48;;;;;;;11.60;7.10;;;11.20;99.90;;;;;;5052549;28;20044;-72
2021/10/16 12:55:18;;;;;;;11.00;7.50;;;11.40;99.90;;;;;;5040037;28;20105;-72